createdAt,value
2022-12-17T00:00:00.792Z,-0.11
2022-12-17T00:05:00.487Z,-0.09
2022-12-17T00:10:00.478Z,-0.10
2022-12-17T00:15:00.339Z,-0.07
2022-12-17T00:20:00.377Z,-0.06
2022-12-17T00:25:00.341Z,-0.06
2022-12-17T00:30:00.372Z,-0.10
2022-12-17T00:35:01.141Z,-0.10
2022-12-17T00:40:00.461Z,-0.09
2022-12-17T00:45:00.334Z,-0.08
2022-12-17T00:50:00.387Z,-0.08
2022-12-17T00:55:00.385Z,-0.08
2022-12-17T01:00:00.850Z,-0.10
2022-12-17T01:05:00.441Z,-0.11
2022-12-17T01:10:00.450Z,-0.10
2022-12-17T01:15:00.422Z,-0.15
2022-12-17T01:20:00.359Z,-0.18
2022-12-17T01:25:00.417Z,-0.17
2022-12-17T01:30:00.608Z,-0.17
2022-12-17T01:35:00.364Z,-0.17
2022-12-17T01:40:00.392Z,-0.18
2022-12-17T01:45:01.285Z,-0.17
2022-12-17T01:50:00.474Z,-0.20
2022-12-17T01:55:02.927Z,-0.23
2022-12-17T02:00:04.810Z,-0.24
2022-12-17T02:05:00.465Z,-0.27
2022-12-17T02:10:18.895Z,-0.28
2022-12-17T02:15:10.040Z,-0.31
2022-12-17T02:20:02.386Z,-0.31
2022-12-17T02:25:10.944Z,-0.32
2022-12-17T02:30:05.215Z,-0.34
2022-12-17T02:35:03.503Z,-0.38
2022-12-17T02:40:00.741Z,-0.38
2022-12-17T02:45:01.382Z,-0.40
2022-12-17T02:50:00.437Z,-0.45
2022-12-17T02:55:00.365Z,-0.48
2022-12-17T03:00:01.060Z,-0.49
2022-12-17T03:05:21.102Z,-0.49
2022-12-17T03:10:00.387Z,-0.51
2022-12-17T03:15:00.380Z,-0.53
2022-12-17T03:20:00.443Z,-0.62
2022-12-17T03:25:00.411Z,-0.77
2022-12-17T03:30:00.789Z,-0.88
2022-12-17T03:35:00.506Z,-0.96
2022-12-17T03:40:00.339Z,-0.95
2022-12-17T03:45:00.362Z,-0.96
2022-12-17T03:50:00.520Z,-0.92
2022-12-17T03:55:00.349Z,-0.90
2022-12-17T04:00:00.849Z,-0.88
2022-12-17T04:05:00.349Z,-0.83
2022-12-17T04:10:00.427Z,-0.81
2022-12-17T04:15:00.347Z,-0.78
2022-12-17T04:20:00.468Z,-0.76
2022-12-17T04:25:00.332Z,-0.74
2022-12-17T04:30:00.368Z,-0.74
2022-12-17T04:35:00.451Z,-0.82
2022-12-17T04:40:00.339Z,-0.80
2022-12-17T04:45:00.508Z,-0.82
2022-12-17T04:50:00.435Z,-0.82
2022-12-17T04:55:00.358Z,-0.81
2022-12-17T05:00:01.019Z,-0.86
2022-12-17T05:05:00.373Z,-0.83
2022-12-17T05:10:00.353Z,-0.85
2022-12-17T05:15:00.584Z,-0.85
2022-12-17T05:20:00.475Z,-0.86
2022-12-17T05:25:00.466Z,-0.87
2022-12-17T05:30:00.372Z,-0.91
2022-12-17T05:35:00.393Z,-0.94
2022-12-17T05:40:00.402Z,-0.92
2022-12-17T05:45:00.367Z,-0.89
2022-12-17T05:50:00.573Z,-0.89
2022-12-17T05:55:00.540Z,-0.88
2022-12-17T06:00:00.862Z,-0.90
2022-12-17T06:05:02.126Z,-0.91
2022-12-17T06:10:00.384Z,-0.91
2022-12-17T06:15:00.363Z,-0.93
2022-12-17T06:20:00.465Z,-0.93
2022-12-17T06:25:00.385Z,-0.92
2022-12-17T06:30:00.483Z,-0.91
2022-12-17T06:35:00.363Z,-0.99
2022-12-17T06:40:00.375Z,-1.02
2022-12-17T06:45:00.347Z,-1.03
2022-12-17T06:50:01.720Z,-1.05
2022-12-17T06:55:00.607Z,-1.13
2022-12-17T07:00:00.806Z,-1.16
2022-12-17T07:05:00.384Z,-1.16
2022-12-17T07:10:00.398Z,-1.19
2022-12-17T07:15:00.436Z,-1.21
2022-12-17T07:20:00.540Z,-1.26
2022-12-17T07:25:00.347Z,-1.31
2022-12-17T07:30:00.495Z,-1.30
2022-12-17T07:35:00.397Z,-1.31
2022-12-17T07:40:00.442Z,-1.28
2022-12-17T07:45:00.536Z,-1.28
2022-12-17T07:50:00.444Z,-1.30
2022-12-17T07:55:00.476Z,-1.35
2022-12-17T08:00:00.779Z,-1.34
2022-12-17T08:05:00.361Z,-1.42
2022-12-17T08:10:00.564Z,-1.44
2022-12-17T08:15:00.364Z,-1.41
2022-12-17T08:20:00.354Z,-1.35
2022-12-17T08:25:00.476Z,-1.32
2022-12-17T08:30:00.393Z,-1.30
2022-12-17T08:35:00.437Z,-1.32
2022-12-17T08:40:00.379Z,-1.30
2022-12-17T08:45:00.377Z,-1.25
2022-12-17T08:50:00.458Z,-1.23
2022-12-17T08:55:00.403Z,-1.23
2022-12-17T09:00:01.919Z,-1.20
2022-12-17T09:05:00.341Z,-1.20
2022-12-17T09:10:00.431Z,-1.23
2022-12-17T09:15:00.363Z,-1.22
2022-12-17T09:20:00.379Z,-1.22
2022-12-17T09:25:00.516Z,-1.19
2022-12-17T09:30:00.517Z,-1.16
2022-12-17T09:35:00.342Z,-1.10
2022-12-17T09:40:00.442Z,-1.09
2022-12-17T09:45:07.504Z,-1.13
2022-12-17T09:50:03.091Z,-1.12
2022-12-17T09:55:01.998Z,-1.07
2022-12-17T10:00:02.952Z,-1.06
2022-12-17T10:05:03.838Z,-0.98
2022-12-17T10:10:13.025Z,-0.95
2022-12-17T10:15:01.314Z,-0.94
2022-12-17T10:20:00.929Z,-0.95
2022-12-17T10:25:06.747Z,-0.97
2022-12-17T10:30:00.350Z,-0.97
2022-12-17T10:35:06.771Z,-0.93
2022-12-17T10:40:10.473Z,-0.91
2022-12-17T10:45:11.469Z,-0.89
2022-12-17T10:50:05.377Z,-0.88
2022-12-17T10:55:04.420Z,-0.84
2022-12-17T11:00:02.168Z,-0.78
2022-12-17T11:05:02.568Z,-0.83
2022-12-17T11:10:08.496Z,-0.85
2022-12-17T11:15:14.190Z,-0.84
2022-12-17T11:20:06.754Z,-0.83
2022-12-17T11:25:06.726Z,-0.84
2022-12-17T11:30:00.392Z,-0.97
2022-12-17T11:35:01.400Z,-0.95
2022-12-17T11:40:10.288Z,-0.92
2022-12-17T11:45:15.536Z,-0.98
2022-12-17T11:50:15.740Z,-0.99
2022-12-17T11:55:03.576Z,-0.99
2022-12-17T12:00:12.094Z,-0.95
2022-12-17T12:05:09.602Z,-1.00
2022-12-17T12:10:05.647Z,-1.02
2022-12-17T12:15:01.408Z,-0.95
2022-12-17T12:20:12.161Z,-0.90
2022-12-17T12:25:20.243Z,-0.89
2022-12-17T12:30:15.044Z,-0.85
2022-12-17T12:35:02.972Z,-0.89
2022-12-17T12:40:20.354Z,-0.84
2022-12-17T12:45:12.898Z,-0.81
2022-12-17T12:50:11.405Z,-0.86
2022-12-17T12:55:00.478Z,-0.87
2022-12-17T13:00:00.646Z,-0.84
2022-12-17T13:05:00.401Z,-0.82
2022-12-17T13:10:00.448Z,-0.83
2022-12-17T13:15:14.783Z,-0.81
2022-12-17T13:20:20.251Z,-0.96
2022-12-17T13:25:19.195Z,-1.02
2022-12-17T13:30:13.570Z,-0.99
2022-12-17T13:35:15.113Z,-1.02
2022-12-17T13:40:20.251Z,-1.09
2022-12-17T13:50:33.289Z,-1.10
2022-12-17T13:55:15.846Z,-1.09
2022-12-17T14:00:02.786Z,-1.10
2022-12-17T14:05:07.688Z,-1.12
2022-12-17T14:10:03.106Z,-1.08
2022-12-17T14:15:04.828Z,-1.12
2022-12-17T14:20:04.237Z,-1.14
2022-12-17T14:25:01.224Z,-1.20
2022-12-17T14:30:01.964Z,-1.23
2022-12-17T14:35:01.154Z,-1.24
2022-12-17T14:40:04.198Z,-1.27
2022-12-17T14:45:04.236Z,-1.28
2022-12-17T14:50:05.946Z,-1.37
2022-12-17T14:55:01.169Z,-1.52
2022-12-17T15:00:00.672Z,-1.61
2022-12-17T15:05:01.745Z,-1.68
2022-12-17T15:10:09.904Z,-1.70
2022-12-17T15:15:00.351Z,-1.66
2022-12-17T15:20:00.364Z,-1.65
2022-12-17T15:25:00.369Z,-1.71
2022-12-17T15:30:00.427Z,-1.70
2022-12-17T15:35:00.340Z,-1.74
2022-12-17T15:40:00.793Z,-1.74
2022-12-17T15:45:00.343Z,-1.77
2022-12-17T15:50:00.464Z,-1.79
2022-12-17T15:55:00.366Z,-1.82
2022-12-17T16:00:00.814Z,-1.81
2022-12-17T16:05:00.375Z,-1.83
2022-12-17T16:10:05.131Z,-1.88
2022-12-17T16:15:01.348Z,-1.90
2022-12-17T16:20:00.384Z,-1.98
2022-12-17T16:25:00.421Z,-1.96
2022-12-17T16:30:00.496Z,-1.96
2022-12-17T16:35:00.514Z,-2.00
2022-12-17T16:40:00.870Z,-2.01
2022-12-17T16:45:00.343Z,-2.11
2022-12-17T16:50:00.392Z,-2.23
2022-12-17T16:55:00.346Z,-2.26
2022-12-17T17:00:00.739Z,-2.26
2022-12-17T17:05:00.427Z,-2.25
2022-12-17T17:10:00.416Z,-2.28
2022-12-17T17:15:00.355Z,-2.33
2022-12-17T17:20:00.350Z,-2.43
2022-12-17T17:25:00.411Z,-2.53
2022-12-17T17:30:03.619Z,-2.54
2022-12-17T17:35:00.349Z,-2.51
2022-12-17T17:40:00.434Z,-2.53
2022-12-17T17:45:00.416Z,-2.66
2022-12-17T17:50:00.367Z,-2.67
2022-12-17T17:55:00.375Z,-2.58
2022-12-17T18:00:00.649Z,-2.66
2022-12-17T18:05:00.352Z,-2.74
2022-12-17T18:10:00.415Z,-2.82
2022-12-17T18:15:16.253Z,-2.76
2022-12-17T18:20:00.381Z,-2.67
2022-12-17T18:25:00.370Z,-2.58
2022-12-17T18:30:01.856Z,-2.61
2022-12-17T18:35:00.605Z,-2.62
2022-12-17T18:40:00.517Z,-2.58
2022-12-17T18:45:00.434Z,-2.58
2022-12-17T18:50:00.455Z,-2.68
2022-12-17T18:55:00.347Z,-2.68
2022-12-17T19:00:00.555Z,-2.77
2022-12-17T19:05:00.429Z,-3.00
2022-12-17T19:10:00.419Z,-3.11
2022-12-17T19:15:00.367Z,-3.14
2022-12-17T19:20:00.385Z,-3.11
2022-12-17T19:25:00.348Z,-3.11
2022-12-17T19:30:00.457Z,-3.19
2022-12-17T19:35:00.430Z,-3.19
2022-12-17T19:40:00.408Z,-3.11
2022-12-17T19:45:00.357Z,-3.16
2022-12-17T19:50:00.343Z,-3.30
2022-12-17T19:55:00.388Z,-3.30
2022-12-17T20:00:00.792Z,-3.21
2022-12-17T20:05:00.420Z,-3.13
2022-12-17T20:10:00.468Z,-3.12
2022-12-17T20:15:00.389Z,-3.15
2022-12-17T20:20:00.357Z,-3.17
2022-12-17T20:25:00.343Z,-3.18
2022-12-17T20:30:00.383Z,-3.12
2022-12-17T20:35:00.366Z,-3.16
2022-12-17T20:40:00.355Z,-3.19
2022-12-17T20:45:00.538Z,-3.26
2022-12-17T20:50:00.458Z,-3.30
2022-12-17T20:55:00.348Z,-3.34
2022-12-17T21:00:00.773Z,-3.34
2022-12-17T21:05:00.523Z,-3.31
2022-12-17T22:10:27.987Z,-4.28
2022-12-17T22:15:00.348Z,-4.18
2022-12-17T22:20:00.340Z,-4.11
2022-12-17T22:25:04.615Z,-4.09
2022-12-17T22:30:00.469Z,-4.10
2022-12-17T22:36:16.667Z,-4.01
2022-12-17T22:44:28.732Z,-3.94
2022-12-17T22:45:09.583Z,-3.89
2022-12-17T22:50:00.424Z,-3.93
2022-12-17T22:55:00.432Z,-4.01
2022-12-17T23:00:01.714Z,-4.11
2022-12-17T23:05:00.356Z,-4.22
2022-12-17T23:10:00.559Z,-4.14
2022-12-17T23:15:00.366Z,-4.12
2022-12-17T23:20:00.372Z,-4.12
2022-12-17T23:25:00.373Z,-4.12
2022-12-17T23:30:00.464Z,-4.13
2022-12-17T23:35:00.439Z,-4.20
2022-12-17T23:40:00.380Z,-4.28
2022-12-17T23:45:00.423Z,-4.27
2022-12-17T23:50:00.492Z,-4.19
2022-12-17T23:55:00.378Z,-4.18
